createdAt,value
2019-05-15T00:01:23.152Z,72.10
2019-05-15T00:03:53.774Z,72.80
2019-05-15T00:06:23.938Z,72.90
2019-05-15T00:08:54.392Z,73.20
2019-05-15T00:11:24.506Z,73.40
2019-05-15T00:13:54.867Z,73.90
2019-05-15T00:16:24.926Z,73.70
2019-05-15T00:18:58.892Z,73.90
2019-05-15T00:21:29.015Z,74.20
2019-05-15T00:24:00.048Z,74.40
2019-05-15T00:26:30.524Z,74.60
2019-05-15T00:29:11.531Z,74.20
2019-05-15T00:31:32.618Z,74.00
2019-05-15T00:34:03.363Z,74.80
2019-05-15T00:36:33.778Z,75.00
2019-05-15T00:39:05.078Z,75.00
2019-05-15T00:41:49.896Z,74.70
2019-05-15T00:44:09.213Z,76.00
2019-05-15T00:46:40.416Z,75.50
2019-05-15T00:49:11.113Z,75.70
2019-05-15T00:51:41.246Z,76.30
2019-05-15T00:54:11.654Z,76.50
2019-05-15T00:56:41.767Z,75.80
2019-05-15T00:59:23.125Z,76.20
2019-05-15T01:01:44.012Z,75.80
2019-05-15T01:04:19.220Z,75.50
2019-05-15T01:06:53.666Z,75.70
2019-05-15T01:09:26.290Z,75.40
2019-05-15T01:11:58.588Z,75.50
2019-05-15T01:14:28.715Z,75.50
2019-05-15T01:16:59.110Z,75.00
2019-05-15T01:19:29.227Z,75.40
2019-05-15T01:22:02.118Z,75.40
2019-05-15T01:24:32.525Z,74.90
2019-05-15T01:27:03.000Z,75.10
2019-05-15T01:29:43.784Z,75.00
2019-05-15T01:32:05.576Z,74.70
2019-05-15T01:34:38.291Z,74.60
2019-05-15T01:37:08.742Z,75.00
2019-05-15T01:39:39.324Z,74.90
2019-05-15T01:42:10.042Z,75.00
2019-05-15T01:44:40.468Z,76.30
2019-05-15T01:47:10.574Z,75.10
2019-05-15T01:49:41.440Z,76.70
2019-05-15T01:52:12.097Z,76.10
2019-05-15T01:54:42.297Z,75.70
2019-05-15T01:57:13.063Z,76.10
2019-05-15T01:59:56.564Z,75.80
2019-05-15T02:02:15.278Z,76.50
2019-05-15T02:04:45.570Z,77.60
2019-05-15T02:07:18.657Z,76.20
2019-05-15T02:09:49.346Z,76.20
2019-05-15T02:12:20.375Z,76.10
2019-05-15T02:14:50.472Z,75.60
2019-05-15T02:17:20.939Z,75.10
2019-05-15T02:19:51.440Z,75.00
2019-05-15T02:22:22.122Z,75.30
2019-05-15T02:24:52.296Z,74.90
2019-05-15T02:27:22.657Z,74.90
2019-05-15T02:29:52.833Z,75.00
2019-05-15T02:32:22.879Z,74.90
2019-05-15T02:34:53.015Z,75.60
2019-05-15T02:37:23.177Z,75.90
2019-05-15T02:39:53.547Z,75.50
2019-05-15T02:42:24.321Z,75.10
2019-05-15T02:44:54.349Z,75.00
2019-05-15T02:47:24.475Z,75.20
2019-05-15T02:49:54.924Z,75.10
2019-05-15T02:52:29.290Z,74.90
2019-05-15T02:54:59.953Z,74.70
2019-05-15T02:57:30.629Z,74.70
2019-05-15T03:00:00.981Z,74.90
2019-05-15T03:02:31.381Z,75.10
2019-05-15T03:05:01.882Z,74.90
2019-05-15T03:07:32.350Z,75.00
2019-05-15T03:10:03.273Z,74.90
2019-05-15T03:12:33.362Z,74.70
2019-05-15T03:15:03.816Z,74.80
2019-05-15T03:17:34.021Z,74.60
2019-05-15T03:20:04.269Z,74.70
2019-05-15T03:22:35.322Z,74.50
2019-05-15T03:25:10.527Z,74.30
2019-05-15T03:27:39.954Z,74.10
2019-05-15T03:30:14.035Z,74.50
2019-05-15T03:32:53.049Z,74.50
2019-05-15T03:35:22.677Z,74.10
2019-05-15T03:37:49.692Z,74.20
2019-05-15T03:40:21.640Z,74.00
2019-05-15T03:42:52.091Z,74.00
2019-05-15T03:45:22.484Z,73.80
2019-05-15T03:47:52.902Z,73.50
2019-05-15T03:50:23.733Z,73.30
2019-05-15T03:52:54.158Z,72.70
2019-05-15T03:55:24.559Z,72.30
2019-05-15T03:57:54.582Z,72.40
2019-05-15T04:00:24.653Z,71.40
2019-05-15T04:02:54.657Z,70.80
2019-05-15T04:05:25.065Z,68.00
2019-05-15T04:07:59.515Z,61.80
2019-05-15T04:10:28.820Z,58.40
2019-05-15T04:13:00.345Z,57.30
2019-05-15T04:15:30.765Z,59.40
2019-05-15T04:18:01.904Z,62.20
2019-05-15T04:20:32.295Z,64.10
2019-05-15T04:23:03.070Z,65.40
2019-05-15T04:25:34.286Z,65.10
2019-05-15T04:28:09.642Z,64.50
2019-05-15T04:30:39.446Z,64.10
2019-05-15T04:33:10.407Z,65.00
2019-05-15T04:35:40.849Z,65.60
2019-05-15T04:38:11.094Z,65.40
2019-05-15T04:40:41.186Z,66.00
2019-05-15T04:43:11.503Z,64.90
2019-05-15T04:45:41.997Z,64.40
2019-05-15T04:48:12.146Z,64.50
2019-05-15T04:50:42.170Z,64.10
2019-05-15T04:53:12.315Z,64.60
2019-05-15T04:55:42.515Z,65.00
2019-05-15T04:58:12.834Z,64.40
2019-05-15T05:00:50.744Z,64.10
2019-05-15T05:03:21.551Z,63.80
2019-05-15T05:05:51.824Z,62.40
2019-05-15T05:08:21.977Z,62.50
2019-05-15T05:10:52.448Z,62.30
2019-05-15T05:13:22.766Z,61.80
2019-05-15T05:15:52.895Z,61.70
2019-05-15T05:18:23.203Z,61.20
2019-05-15T05:20:53.360Z,61.10
2019-05-15T05:23:24.086Z,61.00
2019-05-15T05:25:54.896Z,60.10
2019-05-15T05:28:25.012Z,60.60
2019-05-15T05:30:55.453Z,59.80
2019-05-15T05:33:25.870Z,59.40
2019-05-15T05:35:58.314Z,59.20
2019-05-15T05:38:28.498Z,58.20
2019-05-15T05:40:58.849Z,59.00
2019-05-15T05:43:29.983Z,57.70
2019-05-15T05:46:00.702Z,57.60
2019-05-15T05:48:31.165Z,58.20
2019-05-15T05:51:01.908Z,58.00
2019-05-15T05:53:32.003Z,57.00
2019-05-15T05:56:02.384Z,56.80
2019-05-15T05:58:33.215Z,56.80
2019-05-15T06:01:03.757Z,55.80
2019-05-15T06:03:34.806Z,54.70
2019-05-15T06:06:05.244Z,53.80
2019-05-15T06:08:35.348Z,55.00
2019-05-15T06:11:06.170Z,54.00
2019-05-15T06:13:38.243Z,54.90
2019-05-15T06:16:08.586Z,54.00
2019-05-15T06:18:39.601Z,53.70
2019-05-15T06:21:10.044Z,52.60
2019-05-15T06:23:45.244Z,51.90
2019-05-15T06:26:12.528Z,52.00
2019-05-15T06:28:45.540Z,50.80
2019-05-15T06:31:18.809Z,51.40
2019-05-15T06:33:49.034Z,52.10
2019-05-15T06:36:20.078Z,53.00
2019-05-15T06:38:50.097Z,52.80
2019-05-15T06:41:20.514Z,52.70
2019-05-15T06:43:50.950Z,52.50
2019-05-15T06:46:21.118Z,51.70
2019-05-15T06:48:51.503Z,50.70
2019-05-15T06:51:21.921Z,50.30
2019-05-15T06:53:52.530Z,49.50
2019-05-15T06:56:23.738Z,49.60
2019-05-15T06:58:54.625Z,48.80
2019-05-15T07:01:25.182Z,46.00
2019-05-15T07:03:55.630Z,45.70
2019-05-15T07:06:28.723Z,45.00
2019-05-15T07:08:58.946Z,45.00
2019-05-15T07:11:29.237Z,43.60
2019-05-15T07:13:59.391Z,43.50
2019-05-15T07:16:29.956Z,43.30
2019-05-15T07:19:00.814Z,44.20
2019-05-15T07:21:31.363Z,44.00
2019-05-15T07:24:01.846Z,42.80
2019-05-15T07:26:32.183Z,43.20
2019-05-15T07:29:02.540Z,43.50
2019-05-15T07:31:33.065Z,42.90
2019-05-15T07:34:03.469Z,43.60
2019-05-15T07:36:33.470Z,43.80
2019-05-15T07:39:05.398Z,43.60
2019-05-15T07:41:35.479Z,42.60
2019-05-15T07:44:07.823Z,41.60
2019-05-15T07:46:38.372Z,41.70
2019-05-15T07:49:09.192Z,41.60
2019-05-15T07:51:40.074Z,41.50
2019-05-15T07:54:10.250Z,41.40
2019-05-15T07:56:40.497Z,41.50
2019-05-15T07:59:10.558Z,39.90
2019-05-15T08:01:40.628Z,40.00
2019-05-15T08:04:24.731Z,40.10
2019-05-15T08:06:42.981Z,40.20
2019-05-15T08:09:13.097Z,40.10
2019-05-15T08:11:43.472Z,39.70
2019-05-15T08:14:13.581Z,38.80
2019-05-15T08:16:43.608Z,38.70
2019-05-15T08:19:13.672Z,38.60
2019-05-15T08:21:43.807Z,39.00
2019-05-15T08:24:13.889Z,38.10
2019-05-15T08:26:45.649Z,38.70
2019-05-15T08:29:19.304Z,37.50
2019-05-15T08:31:48.395Z,38.30
2019-05-15T08:34:19.645Z,37.50
2019-05-15T08:36:50.297Z,37.60
2019-05-15T08:39:20.833Z,37.60
2019-05-15T08:41:51.482Z,37.80
2019-05-15T08:44:21.571Z,38.20
2019-05-15T08:46:51.979Z,38.20
2019-05-15T08:49:23.865Z,37.70
2019-05-15T08:51:54.045Z,37.90
2019-05-15T08:54:24.087Z,37.90
2019-05-15T08:56:54.153Z,37.80
2019-05-15T08:59:24.555Z,38.50
2019-05-15T09:01:54.969Z,36.90
2019-05-15T09:04:30.568Z,36.90
2019-05-15T09:07:01.054Z,36.70
2019-05-15T09:09:28.916Z,35.00
2019-05-15T09:11:58.993Z,34.00
2019-05-15T09:14:30.238Z,34.60
2019-05-15T09:17:01.011Z,35.40
2019-05-15T09:19:31.169Z,34.60
2019-05-15T09:22:01.238Z,34.40
2019-05-15T09:24:32.283Z,35.40
2019-05-15T09:27:02.369Z,35.80
2019-05-15T09:29:33.043Z,35.20
2019-05-15T09:32:04.846Z,35.50
2019-05-15T09:34:49.935Z,35.80
2019-05-15T09:37:08.566Z,35.20
2019-05-15T09:39:38.835Z,35.10
2019-05-15T09:42:09.160Z,35.40
2019-05-15T09:44:39.293Z,35.50
2019-05-15T09:47:09.391Z,35.10
2019-05-15T09:49:39.411Z,35.40
2019-05-15T09:52:09.788Z,35.40
2019-05-15T09:54:39.791Z,35.90
2019-05-15T09:57:10.970Z,35.60
2019-05-15T09:59:41.336Z,35.60
2019-05-15T10:02:11.720Z,35.70
2019-05-15T10:04:41.839Z,35.10
2019-05-15T10:07:12.242Z,35.20
2019-05-15T10:09:42.654Z,35.80
2019-05-15T10:12:13.067Z,36.10
2019-05-15T10:14:43.222Z,36.40
2019-05-15T10:17:13.522Z,36.20
2019-05-15T10:19:48.658Z,36.10
2019-05-15T10:22:15.652Z,36.50
2019-05-15T10:24:50.821Z,36.70
2019-05-15T10:27:18.154Z,36.50
2019-05-15T10:29:48.489Z,36.00
2019-05-15T10:32:19.606Z,36.00
2019-05-15T10:34:50.081Z,36.30
2019-05-15T10:37:20.507Z,35.80
2019-05-15T10:39:52.841Z,35.70
2019-05-15T10:42:22.898Z,35.60
2019-05-15T10:44:53.173Z,34.00
2019-05-15T10:47:23.220Z,34.20
2019-05-15T10:49:53.626Z,34.60
2019-05-15T10:52:23.726Z,34.40
2019-05-15T10:54:54.442Z,34.70
2019-05-15T10:57:24.633Z,35.00
2019-05-15T10:59:55.264Z,34.10
2019-05-15T11:02:25.372Z,33.40
2019-05-15T11:04:57.755Z,32.60
2019-05-15T11:07:28.444Z,30.90
2019-05-15T11:10:00.802Z,30.20
2019-05-15T11:12:31.250Z,30.30
2019-05-15T11:15:01.732Z,30.30
2019-05-15T11:17:32.364Z,31.10
2019-05-15T11:20:02.832Z,31.00
2019-05-15T11:22:33.068Z,30.60
2019-05-15T11:25:05.724Z,30.40
2019-05-15T11:27:38.835Z,29.50
2019-05-15T11:30:08.683Z,28.40
2019-05-15T11:32:39.433Z,27.60
2019-05-15T11:35:09.926Z,27.40
2019-05-15T11:37:45.418Z,27.30
2019-05-15T11:40:12.483Z,26.60
2019-05-15T11:42:42.784Z,25.60
2019-05-15T11:45:13.727Z,25.40
2019-05-15T11:47:43.771Z,26.30
2019-05-15T11:50:14.387Z,27.00
2019-05-15T11:52:44.884Z,27.70
2019-05-15T11:55:15.138Z,28.20
2019-05-15T11:57:47.615Z,28.90
2019-05-15T12:00:26.389Z,29.50
2019-05-15T12:02:50.706Z,30.00
2019-05-15T12:05:22.883Z,30.00
2019-05-15T12:07:52.975Z,29.40
2019-05-15T12:10:23.010Z,29.60
2019-05-15T12:12:53.122Z,29.80
2019-05-15T12:15:23.492Z,29.40
2019-05-15T12:17:53.589Z,27.30
2019-05-15T12:20:24.593Z,27.40
2019-05-15T12:22:54.724Z,26.80
2019-05-15T12:25:29.305Z,26.30
2019-05-15T12:27:59.442Z,26.00
2019-05-15T12:30:29.641Z,25.60
2019-05-15T12:33:01.137Z,25.10
2019-05-15T12:35:31.140Z,25.20
2019-05-15T12:38:01.488Z,24.90
2019-05-15T13:00:49.030Z,25.90
2019-05-15T13:03:19.573Z,26.00
2019-05-15T13:05:49.682Z,25.90
2019-05-15T13:08:20.209Z,26.50
2019-05-15T13:10:50.455Z,27.00
2019-05-15T13:13:20.556Z,26.90
2019-05-15T13:15:50.662Z,26.90
2019-05-15T13:18:20.731Z,27.50
2019-05-15T13:20:50.781Z,27.60
2019-05-15T13:23:20.871Z,28.40
2019-05-15T13:25:50.905Z,28.50
2019-05-15T13:28:20.975Z,29.10
2019-05-15T13:30:51.129Z,28.80
2019-05-15T13:33:21.471Z,29.00
2019-05-15T13:35:51.855Z,29.20
2019-05-15T13:38:22.286Z,29.50
2019-05-15T13:40:52.428Z,30.30
2019-05-15T13:43:23.127Z,30.50
2019-05-15T13:45:55.154Z,30.70
2019-05-15T13:48:25.349Z,30.80
2019-05-15T13:50:58.747Z,31.40
2019-05-15T13:53:29.128Z,31.10
2019-05-15T13:55:59.459Z,31.30
2019-05-15T13:58:29.879Z,32.40
2019-05-15T14:01:00.454Z,32.60
2019-05-15T14:03:34.034Z,32.80
2019-05-15T14:06:04.110Z,33.20
2019-05-15T14:08:34.262Z,33.80
2019-05-15T14:11:04.412Z,34.00
2019-05-15T14:13:35.919Z,34.20
2019-05-15T14:16:06.067Z,34.30
2019-05-15T14:18:36.170Z,34.60
2019-05-15T14:21:08.748Z,35.00
2019-05-15T14:23:38.877Z,35.30
2019-05-15T14:26:17.985Z,35.70
2019-05-15T14:28:40.859Z,35.50
2019-05-15T14:31:11.132Z,36.00
2019-05-15T14:33:41.598Z,36.40
2019-05-15T14:36:12.096Z,36.60
2019-05-15T14:38:42.766Z,36.90
2019-05-15T14:41:12.853Z,37.20
2019-05-15T14:43:43.328Z,37.10
2019-05-15T14:46:13.385Z,36.70
2019-05-15T14:48:43.388Z,36.80
2019-05-15T14:51:13.876Z,36.80
2019-05-15T14:53:45.443Z,37.00
2019-05-15T14:56:15.882Z,38.00
2019-05-15T14:58:48.010Z,37.50
2019-05-15T15:01:18.577Z,38.50
2019-05-15T15:03:49.444Z,39.60
2019-05-15T15:06:21.681Z,40.40
2019-05-15T15:08:51.685Z,41.20
2019-05-15T15:11:22.048Z,41.70
2019-05-15T15:13:52.136Z,41.60
2019-05-15T15:16:22.176Z,41.60
2019-05-15T15:18:52.237Z,41.70
2019-05-15T15:21:22.825Z,41.80
2019-05-15T15:23:53.208Z,41.90
2019-05-15T15:26:23.312Z,42.10
2019-05-15T15:28:53.454Z,42.50
2019-05-15T15:31:23.825Z,42.70
2019-05-15T15:33:53.904Z,43.20
2019-05-15T15:36:24.018Z,43.60
2019-05-15T15:38:54.151Z,43.80
2019-05-15T15:41:24.203Z,44.20
2019-05-15T15:43:54.314Z,44.40
2019-05-15T15:46:24.450Z,44.90
2019-05-15T15:48:54.651Z,45.20
2019-05-15T15:51:25.063Z,45.00
2019-05-15T15:53:56.200Z,45.10
2019-05-15T15:56:28.949Z,45.00
2019-05-15T15:58:59.486Z,44.50
2019-05-15T16:01:31.443Z,44.30
2019-05-15T16:04:01.652Z,44.20
2019-05-15T16:06:32.325Z,44.10
2019-05-15T16:09:02.836Z,44.30
2019-05-15T16:11:33.247Z,44.80
2019-05-15T16:14:03.519Z,45.40
2019-05-15T16:16:33.755Z,45.60
2019-05-15T16:19:03.975Z,46.00
2019-05-15T16:21:34.473Z,46.30
2019-05-15T16:24:15.815Z,46.60
2019-05-15T16:26:38.285Z,46.60
2019-05-15T16:29:09.200Z,46.40
2019-05-15T16:31:40.567Z,46.50
2019-05-15T16:34:10.653Z,46.40
2019-05-15T16:36:41.270Z,47.30
2019-05-15T16:39:11.922Z,46.50
2019-05-15T16:41:42.194Z,46.90
2019-05-15T16:44:12.288Z,47.00
2019-05-15T16:46:43.321Z,47.20
2019-05-15T16:49:13.327Z,47.60
2019-05-15T16:51:43.412Z,48.00
2019-05-15T16:54:13.576Z,47.90
2019-05-15T16:56:43.614Z,47.90
2019-05-15T16:59:14.337Z,48.40
2019-05-15T17:01:44.709Z,48.40
2019-05-15T17:04:14.909Z,48.20
2019-05-15T17:06:45.055Z,48.40
2019-05-15T17:09:21.022Z,48.30
2019-05-15T17:11:49.126Z,48.60
2019-05-15T17:14:19.915Z,49.40
2019-05-15T17:16:51.652Z,48.90
2019-05-15T17:19:22.199Z,48.90
2019-05-15T17:21:52.309Z,48.80
2019-05-15T17:24:23.854Z,48.80
2019-05-15T17:26:54.383Z,49.00
2019-05-15T17:29:24.745Z,49.80
2019-05-15T17:31:55.033Z,48.90
2019-05-15T17:34:25.031Z,49.10
2019-05-15T17:36:55.202Z,49.40
2019-05-15T17:39:34.756Z,49.30
2019-05-15T17:41:59.392Z,49.30
2019-05-15T17:44:29.153Z,49.50
2019-05-15T17:46:59.745Z,49.60
2019-05-15T17:49:30.465Z,50.60
2019-05-15T17:52:02.604Z,50.30
2019-05-15T17:54:33.061Z,50.10
2019-05-15T17:57:03.114Z,50.50
2019-05-15T17:59:33.154Z,50.50
2019-05-15T18:02:03.388Z,50.70
2019-05-15T18:04:34.078Z,50.80
2019-05-15T18:07:04.335Z,50.80
2019-05-15T18:09:48.473Z,50.70
2019-05-15T18:12:11.198Z,50.80
2019-05-15T18:14:38.954Z,50.90
2019-05-15T18:17:09.250Z,50.90
2019-05-15T18:19:39.794Z,51.00
2019-05-15T18:22:09.910Z,50.90
2019-05-15T18:24:40.474Z,51.00
2019-05-15T18:27:11.457Z,51.10
2019-05-15T18:29:44.845Z,51.40
2019-05-15T18:32:14.260Z,51.50
2019-05-15T18:34:44.661Z,51.40
2019-05-15T18:37:15.056Z,51.40
2019-05-15T18:39:49.394Z,51.60
2019-05-15T18:42:18.789Z,51.70
2019-05-15T18:44:49.124Z,51.70
2019-05-15T18:47:19.633Z,51.80
2019-05-15T18:50:04.102Z,52.20
2019-05-15T18:52:22.694Z,51.80
2019-05-15T18:54:53.311Z,51.60
2019-05-15T18:57:23.716Z,51.60
2019-05-15T18:59:54.108Z,51.60
2019-05-15T19:02:24.548Z,51.60
2019-05-15T19:04:55.199Z,51.60
2019-05-15T19:07:25.602Z,51.60
2019-05-15T19:09:56.365Z,52.10
2019-05-15T19:12:28.261Z,51.40
2019-05-15T19:14:58.857Z,51.40
2019-05-15T19:17:30.324Z,51.40
2019-05-15T19:20:00.673Z,51.30
2019-05-15T19:22:30.766Z,51.40
2019-05-15T19:25:03.130Z,51.50
2019-05-15T19:27:33.452Z,51.20
2019-05-15T19:30:03.976Z,51.90
2019-05-15T19:32:34.694Z,51.60
2019-05-15T19:35:05.087Z,51.50
2019-05-15T19:37:38.632Z,51.30
2019-05-15T19:40:09.218Z,51.30
2019-05-15T19:42:39.498Z,52.20
2019-05-15T19:45:13.544Z,51.50
2019-05-15T19:47:43.765Z,51.50
2019-05-15T19:50:14.308Z,51.50
2019-05-15T19:52:45.636Z,51.50
2019-05-15T19:55:20.870Z,51.50
2019-05-15T19:57:49.779Z,51.60
2019-05-15T20:00:20.148Z,51.60
2019-05-15T20:02:50.365Z,51.40
2019-05-15T20:05:20.811Z,51.20
2019-05-15T20:07:51.939Z,51.30
2019-05-15T20:10:23.279Z,51.40
2019-05-15T20:12:53.906Z,51.50
2019-05-15T20:15:24.442Z,51.40
2019-05-15T20:17:54.954Z,51.40
2019-05-15T20:20:28.666Z,51.70
2019-05-15T20:23:00.491Z,52.00
2019-05-15T20:25:31.349Z,52.20
2019-05-15T20:28:01.966Z,52.80
2019-05-15T20:30:33.278Z,53.00
2019-05-15T20:33:04.294Z,52.90
2019-05-15T20:35:35.367Z,53.10
2019-05-15T20:38:05.690Z,52.90
2019-05-15T20:40:38.593Z,52.90
2019-05-15T20:43:09.388Z,52.80
2019-05-15T20:45:40.188Z,53.10
2019-05-15T20:48:11.383Z,52.80
2019-05-15T20:50:42.062Z,53.00
2019-05-15T20:53:12.937Z,52.60
2019-05-15T20:55:43.298Z,52.70
2019-05-15T20:58:13.429Z,52.80
2019-05-15T21:00:43.886Z,52.40
2019-05-15T21:03:13.968Z,52.60
2019-05-15T21:05:44.058Z,52.60
2019-05-15T21:08:14.446Z,52.80
2019-05-15T21:10:44.778Z,52.80
2019-05-15T21:13:14.817Z,52.90
2019-05-15T21:15:47.873Z,52.90
2019-05-15T21:18:21.715Z,53.00
2019-05-15T21:20:49.750Z,53.10
2019-05-15T21:23:19.744Z,53.10
2019-05-15T21:25:50.008Z,53.10
2019-05-15T21:28:20.086Z,53.80
2019-05-15T21:30:50.115Z,54.20
2019-05-15T21:33:20.269Z,55.60
2019-05-15T21:35:50.933Z,56.20
2019-05-15T21:38:21.470Z,56.60
2019-05-15T21:40:51.895Z,56.60
2019-05-15T21:43:21.943Z,57.10
2019-05-15T21:45:52.600Z,60.80
2019-05-15T21:48:22.657Z,64.70
2019-05-15T21:50:54.277Z,65.60
2019-05-15T21:53:25.059Z,64.80
2019-05-15T21:55:55.683Z,65.20
2019-05-15T21:58:25.833Z,65.50
2019-05-15T22:00:58.044Z,63.80
2019-05-15T22:03:30.133Z,63.90
2019-05-15T22:06:04.313Z,65.00
2019-05-15T22:08:34.521Z,64.00
2019-05-15T22:11:04.649Z,63.90
2019-05-15T22:13:34.713Z,63.10
2019-05-15T22:16:04.754Z,62.60
2019-05-15T22:18:34.814Z,62.10
2019-05-15T22:21:07.784Z,62.30
2019-05-15T22:23:38.477Z,62.30
2019-05-15T22:26:09.038Z,61.60
2019-05-15T22:28:39.345Z,61.30
2019-05-15T22:31:09.810Z,61.30
2019-05-15T22:33:40.166Z,60.60
2019-05-15T22:36:10.656Z,60.80
2019-05-15T22:38:41.086Z,60.70
2019-05-15T22:41:11.283Z,60.40
2019-05-15T22:43:41.638Z,60.30
2019-05-15T22:46:12.965Z,60.30
2019-05-15T22:48:43.031Z,60.20
2019-05-15T22:51:13.564Z,60.20
2019-05-15T22:53:43.958Z,60.20
2019-05-15T22:56:14.374Z,59.90
2019-05-15T22:58:44.446Z,59.50
2019-05-15T23:01:14.800Z,60.30
2019-05-15T23:03:45.166Z,60.20
2019-05-15T23:06:17.975Z,60.30
2019-05-15T23:08:49.091Z,60.00
2019-05-15T23:11:21.228Z,59.90
2019-05-15T23:13:51.266Z,60.10
2019-05-15T23:16:21.740Z,60.30
2019-05-15T23:18:51.865Z,60.40
2019-05-15T23:21:22.577Z,60.40
2019-05-15T23:23:52.957Z,60.30
2019-05-15T23:26:23.101Z,60.50
2019-05-15T23:28:55.211Z,60.30
2019-05-15T23:31:27.961Z,61.00
2019-05-15T23:33:58.167Z,60.00
2019-05-15T23:36:28.622Z,60.30
2019-05-15T23:38:59.192Z,60.10
2019-05-15T23:41:29.282Z,60.50
2019-05-15T23:43:59.663Z,60.40
2019-05-15T23:46:29.816Z,60.60
2019-05-15T23:49:00.625Z,60.30
2019-05-15T23:51:30.701Z,60.60
2019-05-15T23:54:00.804Z,60.70
2019-05-15T23:56:30.871Z,60.60
2019-05-15T23:59:01.052Z,60.60
